sensor_id;sensor_type;location;lat;lon;timestamp;temperature;humidity
76099;DHT22;64828;49.956;8.636;2023-08-12T00:00:10;19.00;85.40
76099;DHT22;64828;49.956;8.636;2023-08-12T00:00:29;19.00;85.40
76099;DHT22;64828;49.956;8.636;2023-08-12T00:00:45;19.00;85.40
76099;DHT22;64828;49.956;8.636;2023-08-12T00:01:00;19.00;85.40
76099;DHT22;64828;49.956;8.636;2023-08-12T00:01:16;19.00;85.40
76099;DHT22;64828;49.956;8.636;2023-08-12T00:01:32;18.90;85.50
76099;DHT22;64828;49.956;8.636;2023-08-12T00:01:47;18.90;85.60
76099;DHT22;64828;49.956;8.636;2023-08-12T00:02:03;18.90;85.70
76099;DHT22;64828;49.956;8.636;2023-08-12T00:02:18;18.90;85.80
76099;DHT22;64828;49.956;8.636;2023-08-12T00:02:34;18.90;85.80
76099;DHT22;64828;49.956;8.636;2023-08-12T00:02:49;18.90;85.80
76099;DHT22;64828;49.956;8.636;2023-08-12T00:03:05;18.90;85.90
76099;DHT22;64828;49.956;8.636;2023-08-12T00:03:20;18.90;85.90
76099;DHT22;64828;49.956;8.636;2023-08-12T00:03:36;18.90;86.00
76099;DHT22;64828;49.956;8.636;2023-08-12T00:03:52;19.00;86.00
76099;DHT22;64828;49.956;8.636;2023-08-12T00:04:07;18.90;85.90
76099;DHT22;64828;49.956;8.636;2023-08-12T00:04:23;18.90;85.80
76099;DHT22;64828;49.956;8.636;2023-08-12T00:04:38;18.90;85.80
76099;DHT22;64828;49.956;8.636;2023-08-12T00:04:54;18.90;85.80
76099;DHT22;64828;49.956;8.636;2023-08-12T00:05:10;18.90;85.80
76099;DHT22;64828;49.956;8.636;2023-08-12T00:05:26;18.80;85.80
76099;DHT22;64828;49.956;8.636;2023-08-12T00:05:42;18.90;85.80
76099;DHT22;64828;49.956;8.636;2023-08-12T00:05:58;18.90;85.80
76099;DHT22;64828;49.956;8.636;2023-08-12T00:06:16;18.90;85.70
76099;DHT22;64828;49.956;8.636;2023-08-12T00:06:31;18.90;85.70
76099;DHT22;64828;49.956;8.636;2023-08-12T00:06:48;18.80;85.80
76099;DHT22;64828;49.956;8.636;2023-08-12T00:07:03;18.80;85.90
76099;DHT22;64828;49.956;8.636;2023-08-12T00:07:19;18.80;85.90
76099;DHT22;64828;49.956;8.636;2023-08-12T00:07:34;18.90;86.00
76099;DHT22;64828;49.956;8.636;2023-08-12T00:07:50;18.90;86.00
76099;DHT22;64828;49.956;8.636;2023-08-12T00:08:06;18.90;86.00
76099;DHT22;64828;49.956;8.636;2023-08-12T00:08:21;18.90;86.00
76099;DHT22;64828;49.956;8.636;2023-08-12T00:08:36;18.90;85.90
76099;DHT22;64828;49.956;8.636;2023-08-12T00:08:52;18.90;85.90
76099;DHT22;64828;49.956;8.636;2023-08-12T00:09:08;18.90;85.90
76099;DHT22;64828;49.956;8.636;2023-08-12T00:09:23;18.90;85.90
76099;DHT22;64828;49.956;8.636;2023-08-12T00:09:40;18.90;85.80
76099;DHT22;64828;49.956;8.636;2023-08-12T00:09:55;18.90;85.80
76099;DHT22;64828;49.956;8.636;2023-08-12T00:10:12;18.90;85.70
76099;DHT22;64828;49.956;8.636;2023-08-12T00:10:27;18.90;85.60
76099;DHT22;64828;49.956;8.636;2023-08-12T00:10:43;19.00;85.60
76099;DHT22;64828;49.956;8.636;2023-08-12T00:10:58;19.00;85.70
76099;DHT22;64828;49.956;8.636;2023-08-12T00:11:14;19.00;85.80
76099;DHT22;64828;49.956;8.636;2023-08-12T00:11:29;19.00;85.80
76099;DHT22;64828;49.956;8.636;2023-08-12T00:11:45;19.00;85.80
76099;DHT22;64828;49.956;8.636;2023-08-12T00:12:00;19.00;85.80
76099;DHT22;64828;49.956;8.636;2023-08-12T00:12:16;18.90;85.80
76099;DHT22;64828;49.956;8.636;2023-08-12T00:12:32;18.90;85.80
76099;DHT22;64828;49.956;8.636;2023-08-12T00:12:47;18.90;85.80
76099;DHT22;64828;49.956;8.636;2023-08-12T00:13:03;18.90;85.90
76099;DHT22;64828;49.956;8.636;2023-08-12T00:13:19;19.00;85.80
76099;DHT22;64828;49.956;8.636;2023-08-12T00:13:36;19.00;85.80
76099;DHT22;64828;49.956;8.636;2023-08-12T00:13:51;18.90;85.80
76099;DHT22;64828;49.956;8.636;2023-08-12T00:14:07;19.00;85.80
76099;DHT22;64828;49.956;8.636;2023-08-12T00:14:22;19.00;85.70
76099;DHT22;64828;49.956;8.636;2023-08-12T00:14:37;19.00;85.70
76099;DHT22;64828;49.956;8.636;2023-08-12T00:14:53;19.00;85.80
76099;DHT22;64828;49.956;8.636;2023-08-12T00:15:09;19.00;85.80
76099;DHT22;64828;49.956;8.636;2023-08-12T00:15:25;19.00;85.90
76099;DHT22;64828;49.956;8.636;2023-08-12T00:15:41;19.00;85.90
76099;DHT22;64828;49.956;8.636;2023-08-12T00:15:56;19.00;85.90
76099;DHT22;64828;49.956;8.636;2023-08-12T00:16:12;19.00;85.90
76099;DHT22;64828;49.956;8.636;2023-08-12T00:16:27;18.90;85.90
76099;DHT22;64828;49.956;8.636;2023-08-12T00:16:43;19.00;85.90
76099;DHT22;64828;49.956;8.636;2023-08-12T00:16:59;19.00;85.90
76099;DHT22;64828;49.956;8.636;2023-08-12T00:17:14;18.90;85.90
76099;DHT22;64828;49.956;8.636;2023-08-12T00:17:30;19.00;85.80
76099;DHT22;64828;49.956;8.636;2023-08-12T00:17:45;19.00;85.80
76099;DHT22;64828;49.956;8.636;2023-08-12T00:18:01;19.00;85.80
76099;DHT22;64828;49.956;8.636;2023-08-12T00:18:19;19.00;85.80
76099;DHT22;64828;49.956;8.636;2023-08-12T00:18:35;19.00;85.80
76099;DHT22;64828;49.956;8.636;2023-08-12T00:18:51;19.00;85.90
76099;DHT22;64828;49.956;8.636;2023-08-12T00:19:07;19.00;85.90
76099;DHT22;64828;49.956;8.636;2023-08-12T00:19:23;19.00;85.90
76099;DHT22;64828;49.956;8.636;2023-08-12T00:19:39;19.00;85.90
76099;DHT22;64828;49.956;8.636;2023-08-12T00:19:54;19.00;85.90
76099;DHT22;64828;49.956;8.636;2023-08-12T00:20:10;19.00;85.80
76099;DHT22;64828;49.956;8.636;2023-08-12T00:20:27;19.00;85.80
76099;DHT22;64828;49.956;8.636;2023-08-12T00:20:43;19.00;85.70
76099;DHT22;64828;49.956;8.636;2023-08-12T00:20:58;19.00;85.70
76099;DHT22;64828;49.956;8.636;2023-08-12T00:21:14;19.00;85.60
76099;DHT22;64828;49.956;8.636;2023-08-12T00:21:30;19.00;85.50
76099;DHT22;64828;49.956;8.636;2023-08-12T00:21:45;19.00;85.50
76099;DHT22;64828;49.956;8.636;2023-08-12T00:22:01;19.00;85.40
76099;DHT22;64828;49.956;8.636;2023-08-12T00:22:16;19.00;85.40
76099;DHT22;64828;49.956;8.636;2023-08-12T00:22:32;19.00;85.40
76099;DHT22;64828;49.956;8.636;2023-08-12T00:22:47;19.00;85.40
76099;DHT22;64828;49.956;8.636;2023-08-12T00:23:03;19.00;85.30
76099;DHT22;64828;49.956;8.636;2023-08-12T00:23:19;19.00;85.20
76099;DHT22;64828;49.956;8.636;2023-08-12T00:23:38;19.00;85.20
76099;DHT22;64828;49.956;8.636;2023-08-12T00:23:54;19.00;85.20
76099;DHT22;64828;49.956;8.636;2023-08-12T00:24:09;19.00;85.10
76099;DHT22;64828;49.956;8.636;2023-08-12T00:24:25;19.00;85.20
76099;DHT22;64828;49.956;8.636;2023-08-12T00:24:40;19.00;85.20
76099;DHT22;64828;49.956;8.636;2023-08-12T00:24:56;19.00;85.10
76099;DHT22;64828;49.956;8.636;2023-08-12T00:25:11;19.00;85.10
76099;DHT22;64828;49.956;8.636;2023-08-12T00:25:27;19.10;85.10
76099;DHT22;64828;49.956;8.636;2023-08-12T00:25:42;19.10;85.00
76099;DHT22;64828;49.956;8.636;2023-08-12T00:25:58;19.10;85.00
76099;DHT22;64828;49.956;8.636;2023-08-12T00:26:14;19.10;85.10
76099;DHT22;64828;49.956;8.636;2023-08-12T00:26:29;19.10;85.10
76099;DHT22;64828;49.956;8.636;2023-08-12T00:26:45;19.10;85.20
76099;DHT22;64828;49.956;8.636;2023-08-12T00:27:00;19.10;85.10
76099;DHT22;64828;49.956;8.636;2023-08-12T00:27:16;19.10;85.10
76099;DHT22;64828;49.956;8.636;2023-08-12T00:27:32;19.10;85.10
76099;DHT22;64828;49.956;8.636;2023-08-12T00:27:47;19.10;85.10
76099;DHT22;64828;49.956;8.636;2023-08-12T00:28:03;19.10;85.00
76099;DHT22;64828;49.956;8.636;2023-08-12T00:28:19;19.10;84.90
76099;DHT22;64828;49.956;8.636;2023-08-12T00:28:34;19.10;85.00
76099;DHT22;64828;49.956;8.636;2023-08-12T00:28:50;19.10;85.10
76099;DHT22;64828;49.956;8.636;2023-08-12T00:29:05;19.10;85.10
76099;DHT22;64828;49.956;8.636;2023-08-12T00:29:21;19.10;85.00
76099;DHT22;64828;49.956;8.636;2023-08-12T00:29:36;19.10;84.90
76099;DHT22;64828;49.956;8.636;2023-08-12T00:29:52;19.00;84.90
76099;DHT22;64828;49.956;8.636;2023-08-12T00:30:08;19.10;84.90
76099;DHT22;64828;49.956;8.636;2023-08-12T00:30:24;19.10;85.20
76099;DHT22;64828;49.956;8.636;2023-08-12T00:30:39;19.10;85.10
76099;DHT22;64828;49.956;8.636;2023-08-12T00:30:55;19.10;85.10
76099;DHT22;64828;49.956;8.636;2023-08-12T00:31:10;19.10;85.00
76099;DHT22;64828;49.956;8.636;2023-08-12T00:31:26;19.10;85.10
76099;DHT22;64828;49.956;8.636;2023-08-12T00:31:41;19.10;85.20
76099;DHT22;64828;49.956;8.636;2023-08-12T00:31:56;19.10;85.20
76099;DHT22;64828;49.956;8.636;2023-08-12T00:32:12;19.10;85.30
76099;DHT22;64828;49.956;8.636;2023-08-12T00:32:28;19.10;85.30
76099;DHT22;64828;49.956;8.636;2023-08-12T00:32:43;19.00;85.40
76099;DHT22;64828;49.956;8.636;2023-08-12T00:32:59;19.10;85.40
76099;DHT22;64828;49.956;8.636;2023-08-12T00:33:14;19.10;85.40
76099;DHT22;64828;49.956;8.636;2023-08-12T00:33:30;19.10;85.40
76099;DHT22;64828;49.956;8.636;2023-08-12T00:33:45;19.10;85.50
76099;DHT22;64828;49.956;8.636;2023-08-12T00:34:01;19.10;85.50
76099;DHT22;64828;49.956;8.636;2023-08-12T00:34:17;19.10;85.60
76099;DHT22;64828;49.956;8.636;2023-08-12T00:34:32;19.10;85.60
76099;DHT22;64828;49.956;8.636;2023-08-12T00:34:48;19.10;85.70
76099;DHT22;64828;49.956;8.636;2023-08-12T00:35:03;19.10;85.70
76099;DHT22;64828;49.956;8.636;2023-08-12T00:35:19;19.00;85.70
76099;DHT22;64828;49.956;8.636;2023-08-12T00:35:34;19.00;85.70
76099;DHT22;64828;49.956;8.636;2023-08-12T00:35:50;19.00;85.70
76099;DHT22;64828;49.956;8.636;2023-08-12T00:36:05;19.00;85.70
76099;DHT22;64828;49.956;8.636;2023-08-12T00:36:21;19.00;85.70
76099;DHT22;64828;49.956;8.636;2023-08-12T00:36:36;19.00;85.80
76099;DHT22;64828;49.956;8.636;2023-08-12T00:36:52;19.00;85.80
76099;DHT22;64828;49.956;8.636;2023-08-12T00:37:08;19.00;85.80
76099;DHT22;64828;49.956;8.636;2023-08-12T00:37:23;19.00;85.80
76099;DHT22;64828;49.956;8.636;2023-08-12T00:37:39;19.00;85.90
76099;DHT22;64828;49.956;8.636;2023-08-12T00:37:54;19.00;85.90
76099;DHT22;64828;49.956;8.636;2023-08-12T00:38:10;19.00;85.90
76099;DHT22;64828;49.956;8.636;2023-08-12T00:38:25;19.00;85.90
76099;DHT22;64828;49.956;8.636;2023-08-12T00:38:41;19.00;85.90
76099;DHT22;64828;49.956;8.636;2023-08-12T00:38:56;19.00;86.00
76099;DHT22;64828;49.956;8.636;2023-08-12T00:39:12;19.00;86.10
76099;DHT22;64828;49.956;8.636;2023-08-12T00:39:27;18.90;86.10
76099;DHT22;64828;49.956;8.636;2023-08-12T00:39:43;19.00;86.20
76099;DHT22;64828;49.956;8.636;2023-08-12T00:39:58;19.00;86.20
76099;DHT22;64828;49.956;8.636;2023-08-12T00:40:14;19.00;86.10
76099;DHT22;64828;49.956;8.636;2023-08-12T00:40:29;19.00;86.00
76099;DHT22;64828;49.956;8.636;2023-08-12T00:40:45;19.00;85.90
76099;DHT22;64828;49.956;8.636;2023-08-12T00:41:00;18.90;85.90
76099;DHT22;64828;49.956;8.636;2023-08-12T00:41:16;19.00;85.90
76099;DHT22;64828;49.956;8.636;2023-08-12T00:41:31;19.00;85.90
76099;DHT22;64828;49.956;8.636;2023-08-12T00:41:47;19.00;86.00
76099;DHT22;64828;49.956;8.636;2023-08-12T00:42:03;19.00;86.00
76099;DHT22;64828;49.956;8.636;2023-08-12T00:42:18;18.90;86.00
76099;DHT22;64828;49.956;8.636;2023-08-12T00:42:34;19.00;85.90
76099;DHT22;64828;49.956;8.636;2023-08-12T00:42:49;19.00;85.90
76099;DHT22;64828;49.956;8.636;2023-08-12T00:43:05;19.00;85.90
76099;DHT22;64828;49.956;8.636;2023-08-12T00:43:20;18.90;85.90
76099;DHT22;64828;49.956;8.636;2023-08-12T00:43:36;18.90;85.90
76099;DHT22;64828;49.956;8.636;2023-08-12T00:43:51;18.90;85.90
76099;DHT22;64828;49.956;8.636;2023-08-12T00:44:07;19.00;85.90
76099;DHT22;64828;49.956;8.636;2023-08-12T00:44:22;19.00;86.00
76099;DHT22;64828;49.956;8.636;2023-08-12T00:44:38;19.00;86.00
76099;DHT22;64828;49.956;8.636;2023-08-12T00:44:53;19.00;86.20
76099;DHT22;64828;49.956;8.636;2023-08-12T00:45:11;19.00;86.40
76099;DHT22;64828;49.956;8.636;2023-08-12T00:45:28;19.00;86.50
76099;DHT22;64828;49.956;8.636;2023-08-12T00:45:44;19.00;86.60
76099;DHT22;64828;49.956;8.636;2023-08-12T00:46:00;18.90;86.60
76099;DHT22;64828;49.956;8.636;2023-08-12T00:46:16;18.90;86.70
76099;DHT22;64828;49.956;8.636;2023-08-12T00:46:32;18.90;86.70
76099;DHT22;64828;49.956;8.636;2023-08-12T00:46:48;19.00;86.70
76099;DHT22;64828;49.956;8.636;2023-08-12T00:47:04;19.00;86.80
76099;DHT22;64828;49.956;8.636;2023-08-12T00:47:20;18.90;86.70
76099;DHT22;64828;49.956;8.636;2023-08-12T00:47:36;19.00;86.70
76099;DHT22;64828;49.956;8.636;2023-08-12T00:47:53;19.00;86.70
76099;DHT22;64828;49.956;8.636;2023-08-12T00:48:08;18.90;86.70
76099;DHT22;64828;49.956;8.636;2023-08-12T00:48:25;19.00;86.60
76099;DHT22;64828;49.956;8.636;2023-08-12T00:48:40;18.90;86.50
76099;DHT22;64828;49.956;8.636;2023-08-12T00:48:56;18.90;86.30
76099;DHT22;64828;49.956;8.636;2023-08-12T00:49:12;18.90;86.20
76099;DHT22;64828;49.956;8.636;2023-08-12T00:49:28;18.90;86.20
76099;DHT22;64828;49.956;8.636;2023-08-12T00:49:43;19.00;86.20
76099;DHT22;64828;49.956;8.636;2023-08-12T00:50:00;19.00;86.20
76099;DHT22;64828;49.956;8.636;2023-08-12T00:50:16;18.90;86.30
76099;DHT22;64828;49.956;8.636;2023-08-12T00:50:31;19.00;86.30
76099;DHT22;64828;49.956;8.636;2023-08-12T00:50:47;18.90;86.30
76099;DHT22;64828;49.956;8.636;2023-08-12T00:51:03;19.00;86.30
76099;DHT22;64828;49.956;8.636;2023-08-12T00:51:18;19.00;86.30
76099;DHT22;64828;49.956;8.636;2023-08-12T00:51:35;19.00;86.30
76099;DHT22;64828;49.956;8.636;2023-08-12T00:51:52;18.90;86.20
76099;DHT22;64828;49.956;8.636;2023-08-12T00:52:08;18.90;86.10
76099;DHT22;64828;49.956;8.636;2023-08-12T00:52:24;18.90;86.00
76099;DHT22;64828;49.956;8.636;2023-08-12T00:52:40;19.00;85.90
76099;DHT22;64828;49.956;8.636;2023-08-12T00:52:56;19.00;85.90
76099;DHT22;64828;49.956;8.636;2023-08-12T00:53:13;19.00;85.80
76099;DHT22;64828;49.956;8.636;2023-08-12T00:53:30;19.00;85.80
76099;DHT22;64828;49.956;8.636;2023-08-12T00:53:46;19.00;85.80
76099;DHT22;64828;49.956;8.636;2023-08-12T00:54:05;19.00;85.80
76099;DHT22;64828;49.956;8.636;2023-08-12T00:54:22;19.00;85.70
76099;DHT22;64828;49.956;8.636;2023-08-12T00:54:37;19.00;85.60
76099;DHT22;64828;49.956;8.636;2023-08-12T00:54:53;19.00;85.60
76099;DHT22;64828;49.956;8.636;2023-08-12T00:55:09;19.00;85.60
76099;DHT22;64828;49.956;8.636;2023-08-12T00:55:25;19.00;85.60
76099;DHT22;64828;49.956;8.636;2023-08-12T00:55:40;19.00;85.40
76099;DHT22;64828;49.956;8.636;2023-08-12T00:55:56;19.00;85.30
76099;DHT22;64828;49.956;8.636;2023-08-12T00:56:12;19.10;85.20
76099;DHT22;64828;49.956;8.636;2023-08-12T00:56:28;19.10;85.20
76099;DHT22;64828;49.956;8.636;2023-08-12T00:56:43;19.10;85.10
76099;DHT22;64828;49.956;8.636;2023-08-12T00:57:00;19.10;85.10
76099;DHT22;64828;49.956;8.636;2023-08-12T00:57:16;19.10;85.20
76099;DHT22;64828;49.956;8.636;2023-08-12T00:57:31;19.10;85.10
76099;DHT22;64828;49.956;8.636;2023-08-12T00:57:47;19.10;85.00
76099;DHT22;64828;49.956;8.636;2023-08-12T00:58:03;19.10;84.90
76099;DHT22;64828;49.956;8.636;2023-08-12T00:58:19;19.10;84.90
76099;DHT22;64828;49.956;8.636;2023-08-12T00:58:35;19.10;84.90
76099;DHT22;64828;49.956;8.636;2023-08-12T00:58:50;19.10;84.90
76099;DHT22;64828;49.956;8.636;2023-08-12T00:59:08;19.10;84.80
76099;DHT22;64828;49.956;8.636;2023-08-12T00:59:27;19.10;84.70
76099;DHT22;64828;49.956;8.636;2023-08-12T00:59:44;19.20;84.70
76099;DHT22;64828;49.956;8.636;2023-08-12T01:00:00;19.20;84.50
76099;DHT22;64828;49.956;8.636;2023-08-12T01:00:15;19.20;84.50
76099;DHT22;64828;49.956;8.636;2023-08-12T01:00:32;19.20;84.60
76099;DHT22;64828;49.956;8.636;2023-08-12T01:00:47;19.20;84.50
76099;DHT22;64828;49.956;8.636;2023-08-12T01:01:03;19.20;84.50
76099;DHT22;64828;49.956;8.636;2023-08-12T01:01:19;19.20;84.40
76099;DHT22;64828;49.956;8.636;2023-08-12T01:01:37;19.20;84.40
76099;DHT22;64828;49.956;8.636;2023-08-12T01:01:53;19.20;84.40
76099;DHT22;64828;49.956;8.636;2023-08-12T01:02:09;19.20;84.40
76099;DHT22;64828;49.956;8.636;2023-08-12T01:02:24;19.20;84.40
76099;DHT22;64828;49.956;8.636;2023-08-12T01:02:45;19.20;84.20
76099;DHT22;64828;49.956;8.636;2023-08-12T01:03:03;19.20;84.20
76099;DHT22;64828;49.956;8.636;2023-08-12T01:03:21;19.20;84.10
76099;DHT22;64828;49.956;8.636;2023-08-12T01:03:37;19.20;84.10
76099;DHT22;64828;49.956;8.636;2023-08-12T01:03:52;19.20;84.00
76099;DHT22;64828;49.956;8.636;2023-08-12T01:04:08;19.30;84.00
76099;DHT22;64828;49.956;8.636;2023-08-12T01:04:23;19.20;84.00
76099;DHT22;64828;49.956;8.636;2023-08-12T01:04:39;19.30;84.00
76099;DHT22;64828;49.956;8.636;2023-08-12T01:04:55;19.30;84.00
76099;DHT22;64828;49.956;8.636;2023-08-12T01:05:11;19.20;84.00
76099;DHT22;64828;49.956;8.636;2023-08-12T01:05:26;19.20;84.00
76099;DHT22;64828;49.956;8.636;2023-08-12T01:05:42;19.20;84.00
76099;DHT22;64828;49.956;8.636;2023-08-12T01:05:58;19.30;84.10
76099;DHT22;64828;49.956;8.636;2023-08-12T01:06:14;19.30;84.10
76099;DHT22;64828;49.956;8.636;2023-08-12T01:06:30;19.30;84.00
76099;DHT22;64828;49.956;8.636;2023-08-12T01:06:45;19.30;84.00
76099;DHT22;64828;49.956;8.636;2023-08-12T01:07:01;19.30;84.00
76099;DHT22;64828;49.956;8.636;2023-08-12T01:07:16;19.30;84.20
76099;DHT22;64828;49.956;8.636;2023-08-12T01:07:32;19.30;84.40
76099;DHT22;64828;49.956;8.636;2023-08-12T01:07:48;19.20;84.60
76099;DHT22;64828;49.956;8.636;2023-08-12T01:08:04;19.20;84.80
76099;DHT22;64828;49.956;8.636;2023-08-12T01:08:19;19.30;85.10
76099;DHT22;64828;49.956;8.636;2023-08-12T01:08:35;19.20;85.20
76099;DHT22;64828;49.956;8.636;2023-08-12T01:08:50;19.20;85.30
76099;DHT22;64828;49.956;8.636;2023-08-12T01:09:07;19.20;85.20
76099;DHT22;64828;49.956;8.636;2023-08-12T01:09:22;19.20;85.20
76099;DHT22;64828;49.956;8.636;2023-08-12T01:09:38;19.20;85.20
76099;DHT22;64828;49.956;8.636;2023-08-12T01:09:54;19.20;85.30
76099;DHT22;64828;49.956;8.636;2023-08-12T01:10:09;19.20;85.30
76099;DHT22;64828;49.956;8.636;2023-08-12T01:10:35;19.20;85.40
76099;DHT22;64828;49.956;8.636;2023-08-12T01:10:58;19.10;85.30
76099;DHT22;64828;49.956;8.636;2023-08-12T01:12:01;19.20;85.60
76099;DHT22;64828;49.956;8.636;2023-08-12T01:12:36;19.20;85.60
76099;DHT22;64828;49.956;8.636;2023-08-12T01:13:03;19.10;85.50
76099;DHT22;64828;49.956;8.636;2023-08-12T01:13:36;19.10;85.50
76099;DHT22;64828;49.956;8.636;2023-08-12T01:14:12;19.20;85.60
76099;DHT22;64828;49.956;8.636;2023-08-12T01:15:13;19.20;85.40
76099;DHT22;64828;49.956;8.636;2023-08-12T01:15:31;19.20;85.40
76099;DHT22;64828;49.956;8.636;2023-08-12T01:15:49;19.20;85.30
76099;DHT22;64828;49.956;8.636;2023-08-12T01:16:08;19.20;85.30
76099;DHT22;64828;49.956;8.636;2023-08-12T01:16:28;19.20;85.20
76099;DHT22;64828;49.956;8.636;2023-08-12T01:16:47;19.20;85.10
76099;DHT22;64828;49.956;8.636;2023-08-12T01:17:06;19.20;85.00
76099;DHT22;64828;49.956;8.636;2023-08-12T01:17:24;19.20;85.00
76099;DHT22;64828;49.956;8.636;2023-08-12T01:17:43;19.20;85.00
76099;DHT22;64828;49.956;8.636;2023-08-12T01:18:00;19.20;85.00
76099;DHT22;64828;49.956;8.636;2023-08-12T01:18:17;19.20;85.00
76099;DHT22;64828;49.956;8.636;2023-08-12T01:18:33;19.20;85.10
76099;DHT22;64828;49.956;8.636;2023-08-12T01:18:49;19.20;85.00
76099;DHT22;64828;49.956;8.636;2023-08-12T01:19:06;19.20;85.00
76099;DHT22;64828;49.956;8.636;2023-08-12T01:19:34;19.20;85.00
76099;DHT22;64828;49.956;8.636;2023-08-12T01:19:50;19.20;85.00
76099;DHT22;64828;49.956;8.636;2023-08-12T01:20:07;19.20;85.00
76099;DHT22;64828;49.956;8.636;2023-08-12T01:20:24;19.20;85.00
76099;DHT22;64828;49.956;8.636;2023-08-12T01:20:41;19.20;85.10
76099;DHT22;64828;49.956;8.636;2023-08-12T01:20:58;19.20;85.10
76099;DHT22;64828;49.956;8.636;2023-08-12T01:21:16;19.20;85.10
76099;DHT22;64828;49.956;8.636;2023-08-12T01:21:33;19.20;85.00
76099;DHT22;64828;49.956;8.636;2023-08-12T01:21:53;19.20;85.00
76099;DHT22;64828;49.956;8.636;2023-08-12T01:22:11;19.20;85.00
76099;DHT22;64828;49.956;8.636;2023-08-12T01:22:27;19.20;85.00
76099;DHT22;64828;49.956;8.636;2023-08-12T01:22:45;19.20;85.10
76099;DHT22;64828;49.956;8.636;2023-08-12T01:23:14;19.20;85.10
76099;DHT22;64828;49.956;8.636;2023-08-12T01:23:30;19.20;85.00
76099;DHT22;64828;49.956;8.636;2023-08-12T01:23:45;19.20;84.90
76099;DHT22;64828;49.956;8.636;2023-08-12T01:24:01;19.20;84.90
76099;DHT22;64828;49.956;8.636;2023-08-12T01:24:21;19.20;84.80
76099;DHT22;64828;49.956;8.636;2023-08-12T01:24:42;19.30;84.80
76099;DHT22;64828;49.956;8.636;2023-08-12T01:24:58;19.30;84.70
76099;DHT22;64828;49.956;8.636;2023-08-12T01:25:14;19.20;84.70
76099;DHT22;64828;49.956;8.636;2023-08-12T01:25:29;19.30;84.70
76099;DHT22;64828;49.956;8.636;2023-08-12T01:25:44;19.30;84.60
76099;DHT22;64828;49.956;8.636;2023-08-12T01:26:00;19.30;84.60
76099;DHT22;64828;49.956;8.636;2023-08-12T01:26:15;19.20;84.50
76099;DHT22;64828;49.956;8.636;2023-08-12T01:26:31;19.20;84.60
76099;DHT22;64828;49.956;8.636;2023-08-12T01:26:46;19.30;84.50
76099;DHT22;64828;49.956;8.636;2023-08-12T01:27:02;19.30;84.50
76099;DHT22;64828;49.956;8.636;2023-08-12T01:27:18;19.30;84.50
76099;DHT22;64828;49.956;8.636;2023-08-12T01:27:35;19.30;84.40
76099;DHT22;64828;49.956;8.636;2023-08-12T01:27:51;19.30;84.30
76099;DHT22;64828;49.956;8.636;2023-08-12T01:28:07;19.30;84.30
76099;DHT22;64828;49.956;8.636;2023-08-12T01:28:22;19.30;84.30
76099;DHT22;64828;49.956;8.636;2023-08-12T01:28:38;19.30;84.30
76099;DHT22;64828;49.956;8.636;2023-08-12T01:28:53;19.30;84.30
76099;DHT22;64828;49.956;8.636;2023-08-12T01:29:09;19.30;84.20
76099;DHT22;64828;49.956;8.636;2023-08-12T01:29:25;19.30;84.20
76099;DHT22;64828;49.956;8.636;2023-08-12T01:29:46;19.30;84.20
76099;DHT22;64828;49.956;8.636;2023-08-12T01:30:04;19.30;84.10
76099;DHT22;64828;49.956;8.636;2023-08-12T01:30:21;19.30;84.00
76099;DHT22;64828;49.956;8.636;2023-08-12T01:31:39;19.30;84.00
76099;DHT22;64828;49.956;8.636;2023-08-12T01:32:11;19.40;84.10
76099;DHT22;64828;49.956;8.636;2023-08-12T01:32:45;19.40;84.00
76099;DHT22;64828;49.956;8.636;2023-08-12T01:33:14;19.40;84.20
76099;DHT22;64828;49.956;8.636;2023-08-12T01:33:42;19.30;84.10
76099;DHT22;64828;49.956;8.636;2023-08-12T01:34:02;19.40;84.10
76099;DHT22;64828;49.956;8.636;2023-08-12T01:34:40;19.40;84.10
76099;DHT22;64828;49.956;8.636;2023-08-12T01:35:17;19.40;83.80
76099;DHT22;64828;49.956;8.636;2023-08-12T01:35:39;19.40;83.80
76099;DHT22;64828;49.956;8.636;2023-08-12T01:36:04;19.40;83.90
76099;DHT22;64828;49.956;8.636;2023-08-12T01:36:24;19.40;83.90
76099;DHT22;64828;49.956;8.636;2023-08-12T01:36:42;19.40;83.80
76099;DHT22;64828;49.956;8.636;2023-08-12T01:37:04;19.40;83.80
76099;DHT22;64828;49.956;8.636;2023-08-12T01:37:24;19.40;84.00
76099;DHT22;64828;49.956;8.636;2023-08-12T01:37:42;19.40;84.10
76099;DHT22;64828;49.956;8.636;2023-08-12T01:37:59;19.40;84.00
76099;DHT22;64828;49.956;8.636;2023-08-12T01:38:18;19.40;83.80
76099;DHT22;64828;49.956;8.636;2023-08-12T01:38:35;19.40;83.80
76099;DHT22;64828;49.956;8.636;2023-08-12T01:38:56;19.40;83.90
76099;DHT22;64828;49.956;8.636;2023-08-12T01:39:13;19.40;83.80
76099;DHT22;64828;49.956;8.636;2023-08-12T01:39:32;19.40;83.60
76099;DHT22;64828;49.956;8.636;2023-08-12T01:39:49;19.40;83.50
76099;DHT22;64828;49.956;8.636;2023-08-12T01:40:06;19.40;83.50
76099;DHT22;64828;49.956;8.636;2023-08-12T01:40:24;19.40;83.50
76099;DHT22;64828;49.956;8.636;2023-08-12T01:40:41;19.40;83.70
76099;DHT22;64828;49.956;8.636;2023-08-12T01:40:59;19.40;83.70
76099;DHT22;64828;49.956;8.636;2023-08-12T01:41:16;19.40;83.80
76099;DHT22;64828;49.956;8.636;2023-08-12T01:41:32;19.40;83.90
76099;DHT22;64828;49.956;8.636;2023-08-12T01:41:47;19.40;84.00
76099;DHT22;64828;49.956;8.636;2023-08-12T01:42:03;19.40;84.00
76099;DHT22;64828;49.956;8.636;2023-08-12T01:42:20;19.40;84.10
76099;DHT22;64828;49.956;8.636;2023-08-12T01:42:37;19.40;84.20
76099;DHT22;64828;49.956;8.636;2023-08-12T01:42:54;19.40;84.20
76099;DHT22;64828;49.956;8.636;2023-08-12T01:43:09;19.40;84.20
76099;DHT22;64828;49.956;8.636;2023-08-12T01:43:25;19.40;84.20
76099;DHT22;64828;49.956;8.636;2023-08-12T01:43:41;19.40;84.20
76099;DHT22;64828;49.956;8.636;2023-08-12T01:43:57;19.40;84.30
76099;DHT22;64828;49.956;8.636;2023-08-12T01:44:13;19.40;84.30
76099;DHT22;64828;49.956;8.636;2023-08-12T01:44:28;19.30;84.30
76099;DHT22;64828;49.956;8.636;2023-08-12T01:44:44;19.40;84.30
76099;DHT22;64828;49.956;8.636;2023-08-12T01:45:00;19.30;84.30
76099;DHT22;64828;49.956;8.636;2023-08-12T01:45:18;19.40;84.30
76099;DHT22;64828;49.956;8.636;2023-08-12T01:45:34;19.30;84.30
76099;DHT22;64828;49.956;8.636;2023-08-12T01:45:50;19.40;84.40
76099;DHT22;64828;49.956;8.636;2023-08-12T01:46:06;19.30;84.40
76099;DHT22;64828;49.956;8.636;2023-08-12T01:46:21;19.30;84.30
76099;DHT22;64828;49.956;8.636;2023-08-12T01:46:37;19.30;84.30
76099;DHT22;64828;49.956;8.636;2023-08-12T01:46:53;19.40;84.30
76099;DHT22;64828;49.956;8.636;2023-08-12T01:47:09;19.30;84.30
76099;DHT22;64828;49.956;8.636;2023-08-12T01:47:24;19.40;84.30
76099;DHT22;64828;49.956;8.636;2023-08-12T01:47:43;19.40;84.30
76099;DHT22;64828;49.956;8.636;2023-08-12T01:47:59;19.30;84.20
76099;DHT22;64828;49.956;8.636;2023-08-12T01:48:14;19.40;84.20